Terminal Aerodrome Forecast
Issued by NWS

Home | Current Version | Previous Version | Text Only | Print | Product List | Glossary On
Versions: 1 2 3 4 5 6 7 8 9 10 11 12 13 14 15 16 17 18 19 20
000
FTUS43 KICT 282017 AAA
TAFHUT
TAF AMD
KHUT 282017Z 2820/2918 16015G22KT P6SM SCT040
     FM290200 16009KT P6SM BKN025
     FM290600 15010KT P6SM VCTS BKN025CB OVC080
     FM291300 19010KT P6SM SCT020 BKN035=

USA.gov is the U.S. government's official web portal to all federal, state and local government web resources and services.